Isabella, Tennessee
Current Conditions -  °F | °C
As of 3:15 PM on Monday 24 Nov 2014 (Local Time) from KRZR Reporting Station
Clear Clear  
Wind Chill: 70°   Ceiling: Unl
Heat Index: 70°   Visibility: 10mi
Dew Point: 43°   Wind: 16mph
Humidity: 38%   Direction: 240°WSW
Pressure: 29.77"   Gusts: NA
Location:  35.0276°N, 84.3551°W
Report Text: KRZR 242015Z AUTO 24014KT 10SM CLR 21/06 A2977 RMK
Loading
Personal Weather Stations






























Interactive Weather Map New forecast layout! Learn more

10-Day Weather Forecast

Advertisements
Track Severe Weather on mobile